Saylorsburg, Pennsylvania
Current Conditions -  °F | °C
As of 6:53 PM on Wednesday 28 Jan 2015 (Local Time) from KMPO Reporting Station
Clear Clear  
Wind Chill:   Ceiling: Unl
Heat Index: 19°   Visibility: 10mi
Dew Point:   Wind: 21mph
Humidity: 47%   Direction: 320°NW
Pressure: 30.11"   Gusts: 29mph
Location:  40.9°N, 75.32°W
Report Text: KMPO 282353Z AUTO 32018G25KT 10SM CLR M07/M17 A3011 RMK AO2 SLP234 T10721167 11044 21072 51026
Loading
Personal Weather Stations






























Interactive Weather Map New forecast layout! Learn more

10-Day Weather Forecast

Advertisements
Track Severe Weather on mobile